Time;durP1;ratioP1;P1;durP2;ratioP2;P2;SDS_P1;SDS_P2;PMS_P1;PMS_P2;Temp;Humidity;BMP_temperature;BMP_pressure;BME280_temperature;BME280_humidity;BME280_pressure;Samples;Min_cycle;Max_cycle;Signal;HPM_P1;HPM_P2
2022/11/08 00:03:46;;;;;;;3.83;1.00;;;;;;;8.89;96.97;98572.53;6136566;23;20262;-65
2022/11/08 00:14:27;;;;;;;2.77;0.60;;;;;;;8.65;96.71;98560.00;6135699;23;20203;-65
2022/11/08 00:16:53;;;;;;;4.73;0.67;;;;;;;8.55;97.59;98563.44;6139839;23;20205;-65
2022/11/08 00:19:20;;;;;;;5.10;0.80;;;;;;;8.50;98.32;98559.59;6136414;23;20204;-65
2022/11/08 00:21:46;;;;;;;2.83;0.60;;;;;;;8.40;98.65;98550.00;6140326;23;20516;-66
2022/11/08 00:24:13;;;;;;;3.30;0.70;;;;;;;8.36;99.89;98546.03;6139769;23;20262;-65
2022/11/08 00:26:39;;;;;;;1.73;0.50;;;;;;;8.30;99.83;98544.00;6136058;23;20209;-65
2022/11/08 00:29:07;;;;;;;4.40;0.90;;;;;;;8.38;99.86;98544.13;6100823;23;20197;-66
2022/11/08 00:31:34;;;;;;;7.83;0.80;;;;;;;8.48;97.95;98548.50;6123398;23;20739;-65
2022/11/08 00:34:02;;;;;;;6.80;0.80;;;;;;;8.53;97.67;98534.13;6141116;23;20518;-65
2022/11/08 00:36:29;;;;;;;2.20;0.77;;;;;;;8.69;96.36;98533.53;6137141;23;20212;-65
2022/11/08 00:38:55;;;;;;;3.43;0.77;;;;;;;8.68;94.76;98525.88;6138745;23;20206;-65
2022/11/08 00:41:22;;;;;;;3.23;0.70;;;;;;;8.62;96.34;98527.25;6140181;23;20213;-65
2022/11/08 00:43:49;;;;;;;1.33;0.60;;;;;;;8.55;95.82;98526.16;6141229;23;20209;-65
2022/11/08 00:46:17;;;;;;;2.27;0.60;;;;;;;8.40;96.41;98521.41;6137279;23;20212;-65
2022/11/08 00:48:43;;;;;;;4.20;0.70;;;;;;;8.32;97.38;98526.47;6140828;23;20208;-65
2022/11/08 00:51:11;;;;;;;1.07;0.67;;;;;;;8.34;96.68;98521.13;6137031;23;20264;-65
2022/11/08 00:53:39;;;;;;;1.30;0.60;;;;;;;8.40;95.72;98516.19;6139891;23;20263;-65
2022/11/08 00:56:08;;;;;;;3.73;0.73;;;;;;;8.46;95.74;98519.19;6137319;23;20863;-65
2022/11/08 00:58:34;;;;;;;2.47;0.93;;;;;;;8.48;95.16;98512.88;6141042;23;20205;-65
2022/11/08 01:03:45;;;;;;;1.60;0.60;;;;;;;8.51;93.42;98501.38;6151900;23;20238;-61
2022/11/08 01:06:13;;;;;;;3.57;0.60;;;;;;;8.52;93.04;98516.03;6168347;23;20208;-60
2022/11/08 01:08:40;;;;;;;1.90;0.47;;;;;;;8.50;92.50;98510.16;6174639;23;20256;-61
2022/11/08 01:11:10;;;;;;;3.17;0.70;;;;;;;8.45;93.34;98502.75;6171979;23;20250;-60
2022/11/08 01:13:37;;;;;;;1.47;0.60;;;;;;;8.39;94.57;98506.75;6175890;23;20254;-61
2022/11/08 01:16:06;;;;;;;2.73;0.60;;;;;;;8.37;95.34;98500.88;6172243;23;20250;-61
2022/11/08 01:18:33;;;;;;;4.73;0.80;;;;;;;8.35;95.54;98500.19;6175194;23;20209;-61
2022/11/08 01:21:02;;;;;;;1.77;0.77;;;;;;;8.44;94.81;98497.72;6171058;23;20211;-61
2022/11/08 01:23:29;;;;;;;2.20;0.57;;;;;;;8.58;92.81;98492.06;6174344;23;20210;-61
2022/11/08 01:25:56;;;;;;;5.93;0.93;;;;;;;8.65;92.49;98493.13;6171874;23;20204;-61
2022/11/08 01:28:23;;;;;;;1.77;0.50;;;;;;;8.61;92.39;98485.78;6176131;23;20195;-62
2022/11/08 01:30:49;;;;;;;0.97;0.57;;;;;;;8.48;94.23;98484.25;6176146;23;20203;-62
2022/11/08 01:33:16;;;;;;;2.07;0.70;;;;;;;8.35;93.60;98483.75;6171927;23;20212;-61
2022/11/08 01:35:45;;;;;;;3.50;1.33;;;;;;;8.25;94.94;98478.56;6176440;23;20278;-62
2022/11/08 01:38:13;;;;;;;1.03;0.60;;;;;;;8.16;94.84;98480.22;6172227;23;20396;-61
2022/11/08 01:40:43;;;;;;;4.13;0.70;;;;;;;8.07;96.03;98466.28;6175695;23;20208;-61
2022/11/08 01:43:35;;;;;;;5.27;0.77;;;;;;;8.04;94.74;98469.16;6171688;23;20650;-61
2022/11/08 01:46:36;;;;;;;1.63;0.60;;;;;;;8.02;95.04;98465.03;6172146;23;20231;-61
2022/11/08 01:49:27;;;;;;;3.10;0.50;;;;;;;8.01;96.12;98453.84;6120261;23;20659;-61
2022/11/08 01:52:15;;;;;;;2.57;0.60;;;;;;;8.08;94.17;98449.72;6172227;23;20277;-61
2022/11/08 01:54:49;;;;;;;2.43;0.53;;;;;;;8.12;93.95;98448.50;6160419;23;20299;-61
2022/11/08 01:57:23;;;;;;;4.10;0.70;;;;;;;8.25;92.41;98452.56;6171897;23;20207;-61
2022/11/08 01:59:55;;;;;;;3.80;0.63;;;;;;;8.34;91.38;98440.50;6175715;23;20282;-61
2022/11/08 02:02:22;;;;;;;3.20;0.73;;;;;;;8.47;90.14;98438.41;6171839;23;20561;-62
2022/11/08 02:04:49;;;;;;;1.17;0.50;;;;;;;8.46;89.20;98434.16;6176016;23;20788;-61
2022/11/08 02:07:17;;;;;;;4.00;0.50;;;;;;;8.42;90.54;98436.25;6171708;23;20220;-61
2022/11/08 02:09:47;;;;;;;2.17;0.50;;;;;;;8.37;90.92;98433.25;6175652;23;20216;-63
2022/11/08 02:12:15;;;;;;;3.43;0.60;;;;;;;8.30;90.21;98432.16;6171594;23;20209;-60
2022/11/08 02:14:41;;;;;;;2.53;0.53;;;;;;;8.27;91.87;98429.84;6175950;23;20235;-61
2022/11/08 02:17:09;;;;;;;3.27;0.80;;;;;;;8.22;91.97;98426.84;6171866;23;20203;-61
2022/11/08 02:19:41;;;;;;;0.50;0.40;;;;;;;8.17;91.67;98432.44;6175771;23;20276;-61
2022/11/08 02:22:14;;;;;;;5.73;1.03;;;;;;;8.06;92.35;98428.25;6171774;23;20208;-61
2022/11/08 02:24:42;;;;;;;0.87;0.40;;;;;;;7.93;94.61;98430.31;6175500;23;20649;-61
2022/11/08 02:27:10;;;;;;;6.87;1.33;;;;;;;7.86;96.00;98434.41;6171366;23;20285;-61
2022/11/08 02:29:37;;;;;;;2.37;1.10;;;;;;;7.73;96.95;98443.31;6149048;23;20200;-61
2022/11/08 02:32:05;;;;;;;2.47;1.03;;;;;;;7.60;98.68;98441.00;6171659;23;20203;-61
2022/11/08 02:34:35;;;;;;;5.37;1.90;;;;;;;7.59;100.00;98448.91;6175424;23;20209;-60
2022/11/08 02:37:03;;;;;;;6.77;1.90;;;;;;;7.44;100.00;98449.31;6171604;23;20204;-61
2022/11/08 02:39:31;;;;;;;4.20;2.20;;;;;;;7.34;100.00;98440.72;6175411;23;20560;-61
2022/11/08 02:41:59;;;;;;;3.70;2.00;;;;;;;7.26;100.00;98443.16;6172032;23;20228;-61
2022/11/08 02:44:26;;;;;;;8.27;2.43;;;;;;;7.18;100.00;98449.00;6175035;23;20497;-61
2022/11/08 02:46:53;;;;;;;5.67;2.20;;;;;;;7.12;100.00;98444.34;6175247;23;20719;-61
2022/11/08 02:49:20;;;;;;;10.53;2.40;;;;;;;6.95;100.00;98441.44;6172590;23;20764;-61
2022/11/08 02:51:46;;;;;;;10.70;2.67;;;;;;;6.86;100.00;98445.66;6175354;23;20200;-61
2022/11/08 02:54:13;;;;;;;5.70;1.97;;;;;;;6.77;100.00;98441.25;6170882;23;20216;-61
2022/11/08 02:56:40;;;;;;;4.93;2.10;;;;;;;6.68;100.00;98440.25;6175339;23;20196;-61
2022/11/08 02:59:07;;;;;;;6.53;2.63;;;;;;;6.61;100.00;98432.16;6171356;23;20204;-62
2022/11/08 03:01:34;;;;;;;4.47;2.47;;;;;;;6.62;100.00;98439.00;6175686;23;20550;-61
2022/11/08 03:04:01;;;;;;;5.67;2.43;;;;;;;6.54;100.00;98431.03;6171262;23;20531;-61
2022/11/08 03:06:27;;;;;;;6.40;2.43;;;;;;;6.46;100.00;98425.69;6175916;23;20227;-61
2022/11/08 03:08:54;;;;;;;7.70;2.30;;;;;;;6.42;100.00;98437.25;6171060;23;20247;-61
2022/11/08 03:11:20;;;;;;;8.37;3.27;;;;;;;6.38;100.00;98428.09;6175338;23;20199;-61
2022/11/08 03:13:47;;;;;;;6.00;2.70;;;;;;;6.27;100.00;98414.28;6175143;23;20250;-61
2022/11/08 03:16:15;;;;;;;5.70;2.20;;;;;;;6.23;100.00;98423.28;6171858;23;20219;-61
2022/11/08 03:18:42;;;;;;;5.83;2.53;;;;;;;6.23;100.00;98433.63;6175093;23;20752;-60
2022/11/08 03:21:09;;;;;;;7.90;2.90;;;;;;;6.17;100.00;98429.78;6171395;23;20207;-61
2022/11/08 03:23:36;;;;;;;6.60;2.17;;;;;;;6.09;100.00;98423.59;6175018;23;20582;-61
2022/11/08 03:26:02;;;;;;;5.97;2.30;;;;;;;5.98;100.00;98422.69;6171813;23;20203;-61
2022/11/08 03:28:29;;;;;;;7.23;2.40;;;;;;;6.04;100.00;98423.97;6175545;23;20279;-61
2022/11/08 03:30:56;;;;;;;3.63;1.77;;;;;;;5.93;100.00;98422.22;6171810;23;20246;-61
2022/11/08 03:33:24;;;;;;;9.27;2.57;;;;;;;5.86;100.00;98419.31;6175012;23;20315;-61
2022/11/08 03:35:52;;;;;;;3.93;1.80;;;;;;;5.82;100.00;98420.53;6175231;23;20262;-61
2022/11/08 03:38:19;;;;;;;4.47;1.60;;;;;;;5.74;100.00;98422.94;6171949;23;20215;-61
2022/11/08 03:40:46;;;;;;;2.33;1.30;;;;;;;5.66;100.00;98427.91;6173877;23;20674;-61
2022/11/08 03:43:13;;;;;;;6.00;1.63;;;;;;;5.60;100.00;98421.44;6171219;23;20311;-61
2022/11/08 03:45:40;;;;;;;2.70;0.90;;;;;;;5.60;100.00;98422.28;6175350;23;20255;-61
2022/11/08 03:48:07;;;;;;;3.73;1.23;;;;;;;5.60;100.00;98426.63;6171429;23;20903;-61
2022/11/08 03:50:35;;;;;;;2.00;0.90;;;;;;;5.57;100.00;98426.88;6175222;23;20203;-61
2022/11/08 03:53:01;;;;;;;2.40;1.13;;;;;;;5.51;100.00;98417.00;6170906;23;20681;-61
2022/11/08 03:55:28;;;;;;;2.87;1.03;;;;;;;5.56;100.00;98413.13;6175369;23;20206;-61
2022/11/08 03:57:55;;;;;;;2.37;1.20;;;;;;;5.54;100.00;98411.56;6171293;23;20204;-61
2022/11/08 04:00:24;;;;;;;3.27;0.90;;;;;;;5.47;100.00;98406.09;6175290;23;20200;-61
2022/11/08 04:02:53;;;;;;;2.57;1.10;;;;;;;5.47;100.00;98406.91;6174793;23;20223;-61
2022/11/08 04:05:20;;;;;;;3.90;1.30;;;;;;;5.45;100.00;98402.78;6173832;23;20565;-61
2022/11/08 04:07:48;;;;;;;2.47;0.80;;;;;;;5.46;100.00;98405.25;6177174;23;20200;-61
2022/11/08 04:10:16;;;;;;;1.63;0.90;;;;;;;5.41;100.00;98394.44;6173388;23;20253;-61
2022/11/08 04:15:29;;;;;;;3.73;0.90;;;;;;;5.40;100.00;98397.16;6172614;23;20235;-61
2022/11/08 04:23:28;;;;;;;3.47;0.97;;;;;;;5.40;100.00;98397.16;6173973;23;20211;-61
2022/11/08 04:25:56;;;;;;;1.67;1.03;;;;;;;5.39;100.00;98385.97;6173818;23;20202;-60
2022/11/08 04:28:25;;;;;;;1.40;0.83;;;;;;;5.39;100.00;98385.16;6175084;23;20256;-61
2022/11/08 04:30:53;;;;;;;1.57;0.93;;;;;;;5.39;100.00;98380.00;6167794;23;20255;-60
2022/11/08 04:33:20;;;;;;;3.10;1.17;;;;;;;5.37;100.00;98372.34;6172476;23;20208;-60
2022/11/08 04:35:47;;;;;;;2.03;1.20;;;;;;;5.42;100.00;98375.38;6176838;23;20204;-60
2022/11/08 04:38:14;;;;;;;2.10;0.90;;;;;;;5.41;100.00;98371.16;6173339;23;20225;-60
2022/11/08 04:40:42;;;;;;;10.63;5.47;;;;;;;5.51;100.00;98373.81;6177151;23;20701;-60
2022/11/08 04:43:08;;;;;;;4.30;1.80;;;;;;;5.58;100.00;98368.97;6172970;23;20196;-61
2022/11/08 04:45:35;;;;;;;5.87;3.23;;;;;;;5.54;100.00;98367.56;6177105;23;20199;-60
2022/11/08 04:48:02;;;;;;;11.83;6.03;;;;;;;5.57;100.00;98365.56;6173633;23;20200;-61
2022/11/08 04:50:28;;;;;;;6.73;4.33;;;;;;;5.53;100.00;98371.09;6176986;23;20203;-60
2022/11/08 04:52:55;;;;;;;3.97;2.77;;;;;;;5.50;100.00;98371.34;6173094;23;20207;-60
2022/11/08 04:55:22;;;;;;;1.63;1.20;;;;;;;5.48;100.00;98366.31;6176880;23;20204;-60
2022/11/08 04:57:51;;;;;;;2.90;0.90;;;;;;;5.44;100.00;98373.50;6176542;23;20210;-61
2022/11/08 05:00:18;;;;;;;2.27;1.10;;;;;;;5.40;100.00;98371.28;6173511;23;20564;-61
2022/11/08 05:02:44;;;;;;;1.30;0.90;;;;;;;5.44;100.00;98365.72;6176360;23;20266;-61
2022/11/08 05:05:11;;;;;;;1.83;1.00;;;;;;;5.53;100.00;98366.75;6173350;23;20846;-60
2022/11/08 05:07:37;;;;;;;3.90;2.10;;;;;;;5.56;100.00;98366.50;6176789;23;20585;-61
2022/11/08 05:10:05;;;;;;;4.63;2.83;;;;;;;5.55;100.00;98374.38;6173421;23;20561;-61
2022/11/08 05:12:31;;;;;;;5.17;4.27;;;;;;;5.53;100.00;98364.16;6176386;23;20211;-61
2022/11/08 05:14:59;;;;;;;5.13;4.63;;;;;;;5.51;100.00;98360.88;6173068;23;20204;-61
2022/11/08 05:17:25;;;;;;;5.13;4.20;;;;;;;5.54;100.00;98360.63;6175687;23;20204;-61
2022/11/08 05:25:20;;;;;;;2.87;0.80;;;;;;;5.54;100.00;98352.03;6173692;23;20535;-61
2022/11/08 05:27:47;;;;;;;6.13;3.37;;;;;;;5.55;100.00;98349.31;6176521;23;20208;-61
2022/11/08 05:30:15;;;;;;;2.27;1.47;;;;;;;5.64;100.00;98342.56;6173199;23;20214;-61
2022/11/08 05:32:41;;;;;;;2.80;1.20;;;;;;;5.60;100.00;98338.59;6176120;23;20211;-61
2022/11/08 05:35:08;;;;;;;3.33;1.00;;;;;;;5.65;100.00;98326.06;6173064;23;20208;-61
2022/11/08 05:37:35;;;;;;;2.70;1.10;;;;;;;5.61;100.00;98328.13;6176043;23;20207;-61
2022/11/08 05:40:01;;;;;;;3.50;1.53;;;;;;;5.61;100.00;98325.53;6172919;23;20215;-61
2022/11/08 05:42:28;;;;;;;2.33;1.57;;;;;;;5.76;100.00;98317.44;6149053;23;20672;-61
2022/11/08 05:44:55;;;;;;;2.57;1.63;;;;;;;5.74;100.00;98311.56;6172681;23;20503;-61
2022/11/08 05:47:22;;;;;;;2.60;1.10;;;;;;;5.68;100.00;98309.47;6176412;23;20204;-61
2022/11/08 05:49:49;;;;;;;2.73;1.77;;;;;;;5.71;100.00;98307.44;6176492;23;20204;-61
2022/11/08 05:52:16;;;;;;;2.67;1.87;;;;;;;5.73;100.00;98302.97;6172727;23;20212;-60
2022/11/08 05:54:42;;;;;;;1.60;1.10;;;;;;;5.72;100.00;98303.09;6176127;23;20211;-60
2022/11/08 05:57:09;;;;;;;1.20;0.80;;;;;;;5.81;100.00;98296.31;6173119;23;20203;-60
2022/11/08 05:59:37;;;;;;;1.30;0.67;;;;;;;5.79;100.00;98300.81;6176236;23;20204;-61
2022/11/08 06:02:03;;;;;;;1.63;0.80;;;;;;;5.82;100.00;98303.97;6172713;23;20203;-61
2022/11/08 06:04:32;;;;;;;3.77;0.93;;;;;;;5.86;100.00;98301.94;6176120;23;20203;-61
2022/11/08 06:06:59;;;;;;;1.90;1.00;;;;;;;5.85;100.00;98293.31;6173038;23;20211;-61
2022/11/08 06:09:26;;;;;;;2.70;1.10;;;;;;;5.82;100.00;98298.78;6176150;23;20204;-61
2022/11/08 06:11:56;;;;;;;4.10;1.00;;;;;;;5.76;100.00;98296.72;6150049;23;20215;-60
2022/11/08 06:14:23;;;;;;;2.20;0.90;;;;;;;5.79;100.00;98299.06;6173014;23;20235;-61
2022/11/08 06:16:49;;;;;;;2.40;0.87;;;;;;;5.79;100.00;98303.41;6176296;23;20212;-61
2022/11/08 06:19:16;;;;;;;2.20;1.00;;;;;;;5.73;100.00;98304.75;6172786;23;20215;-62
2022/11/08 06:21:44;;;;;;;4.73;1.43;;;;;;;5.70;100.00;98310.19;6176055;23;20200;-61
2022/11/08 06:24:10;;;;;;;3.17;1.50;;;;;;;5.69;100.00;98311.13;6171926;23;20200;-60
2022/11/08 06:26:37;;;;;;;2.13;1.00;;;;;;;5.64;100.00;98306.31;6175838;23;20203;-61
2022/11/08 06:29:03;;;;;;;1.63;0.97;;;;;;;5.60;100.00;98320.47;6172296;23;20246;-61
2022/11/08 06:31:30;;;;;;;1.20;0.87;;;;;;;5.58;100.00;98324.94;6148970;23;20258;-61
2022/11/08 06:33:56;;;;;;;2.20;1.10;;;;;;;5.62;100.00;98318.56;6172137;23;20262;-61
2022/11/08 06:36:23;;;;;;;3.50;1.00;;;;;;;5.62;100.00;98323.75;6175599;23;20208;-61
2022/11/08 06:38:54;;;;;;;1.40;0.77;;;;;;;5.66;100.00;98332.09;6175943;23;20203;-61
2022/11/08 06:41:22;;;;;;;1.47;0.80;;;;;;;5.70;100.00;98333.47;6172616;23;20208;-61
2022/11/08 06:43:49;;;;;;;4.63;2.87;;;;;;;5.76;100.00;98322.63;6175520;23;20203;-61
2022/11/08 06:46:15;;;;;;;6.40;3.00;;;;;;;5.75;100.00;98321.78;6145717;23;20211;-61
2022/11/08 06:48:42;;;;;;;3.20;2.07;;;;;;;5.80;100.00;98318.00;6175762;23;20210;-61
2022/11/08 06:51:09;;;;;;;2.73;0.90;;;;;;;5.90;100.00;98305.91;6172206;23;20736;-61
2022/11/08 06:53:35;;;;;;;5.10;2.80;;;;;;;6.00;100.00;98312.00;6175587;23;20527;-61
2022/11/08 06:56:08;;;;;;;5.33;3.43;;;;;;;6.05;100.00;98321.97;6172329;23;20226;-61
2022/11/08 06:59:29;;;;;;;;;;;;;;;;;;;;;
2022/11/08 07:01:58;;;;;;;35.27;28.30;;;;;;;6.29;100.00;98324.25;6168053;23;20545;-61
2022/11/08 07:04:28;;;;;;;24.20;18.23;;;;;;;6.39;100.00;98328.63;6175391;23;20195;-61
2022/11/08 07:06:55;;;;;;;12.63;8.63;;;;;;;6.48;100.00;98330.44;6170697;23;20666;-62
2022/11/08 07:09:22;;;;;;;8.43;4.90;;;;;;;6.55;100.00;98330.75;6175577;23;20206;-61
2022/11/08 07:11:50;;;;;;;1.60;1.00;;;;;;;6.69;100.00;98321.75;6175680;23;20677;-61
2022/11/08 07:14:16;;;;;;;8.33;1.20;;;;;;;6.81;100.00;98315.50;6170552;23;20207;-62
2022/11/08 07:16:43;;;;;;;5.57;2.30;;;;;;;6.94;100.00;98317.81;6175368;23;20207;-61
2022/11/08 07:19:09;;;;;;;6.10;3.50;;;;;;;7.06;100.00;98315.94;6171845;23;20271;-62
2022/11/08 07:21:36;;;;;;;7.00;3.27;;;;;;;7.15;100.00;98329.88;6175227;23;20207;-61
2022/11/08 07:24:02;;;;;;;8.43;4.83;;;;;;;7.22;100.00;98325.78;6144825;23;20208;-63
2022/11/08 07:26:29;;;;;;;9.80;6.60;;;;;;;7.31;100.00;98330.16;6175983;23;20247;-62
2022/11/08 07:28:57;;;;;;;17.47;11.17;;;;;;;7.41;100.00;98335.34;6172062;23;20204;-61
2022/11/08 07:31:24;;;;;;;7.10;4.93;;;;;;;7.43;100.00;98335.19;6177018;23;20208;-62
2022/11/08 07:33:55;;;;;;;6.67;2.60;;;;;;;7.47;100.00;98334.78;6175892;23;20196;-62
2022/11/08 07:36:21;;;;;;;5.47;1.73;;;;;;;7.48;100.00;98344.19;6172291;23;20208;-61
2022/11/08 07:38:48;;;;;;;1.70;0.77;;;;;;;7.54;100.00;98341.06;6175018;23;20200;-61
2022/11/08 07:41:16;;;;;;;6.23;3.73;;;;;;;7.63;100.00;98348.97;6171807;23;20218;-62
2022/11/08 07:43:49;;;;;;;2.73;1.70;;;;;;;7.73;100.00;98346.38;6175253;23;20200;-61
2022/11/08 07:46:18;;;;;;;2.73;1.53;;;;;;;7.81;100.00;98347.31;6171437;23;20208;-61
2022/11/08 07:48:44;;;;;;;3.13;1.80;;;;;;;7.87;100.00;98353.75;6174953;23;20200;-61
2022/11/08 07:51:13;;;;;;;5.57;2.67;;;;;;;7.96;100.00;98349.47;6172045;23;20216;-61
2022/11/08 07:53:42;;;;;;;5.20;2.17;;;;;;;8.04;100.00;98349.59;6174997;23;20254;-60
2022/11/08 07:56:11;;;;;;;4.67;2.50;;;;;;;8.11;100.00;98347.22;6172094;23;20200;-61
2022/11/08 07:58:38;;;;;;;4.10;2.60;;;;;;;8.20;100.00;98350.78;6175168;23;20519;-61
2022/11/08 08:01:05;;;;;;;3.70;2.63;;;;;;;8.27;100.00;98360.44;6171695;23;20648;-62
2022/11/08 08:03:33;;;;;;;8.00;3.70;;;;;;;8.34;100.00;98355.50;6175250;23;20210;-62
2022/11/08 08:06:00;;;;;;;8.57;5.03;;;;;;;8.41;100.00;98356.56;6171715;23;20216;-62
2022/11/08 08:08:26;;;;;;;7.53;3.97;;;;;;;8.50;100.00;98352.31;6174974;23;20208;-61
2022/11/08 08:11:14;;;;;;;4.07;3.10;;;;;;;8.57;100.00;98352.53;6175282;23;20204;-61
2022/11/08 08:13:41;;;;;;;4.07;2.67;;;;;;;8.53;99.71;98367.63;6171828;23;20209;-61
2022/11/08 08:16:08;;;;;;;3.37;2.20;;;;;;;8.53;100.00;98378.03;6171711;23;20205;-62
2022/11/08 08:18:36;;;;;;;3.97;2.13;;;;;;;8.48;100.00;98369.00;6175439;23;20204;-61
2022/11/08 08:21:03;;;;;;;3.43;1.37;;;;;;;8.62;95.17;98373.75;6171776;23;20211;-61
2022/11/08 08:23:29;;;;;;;2.63;1.40;;;;;;;8.78;90.40;98367.09;6175025;23;20204;-61
2022/11/08 08:25:56;;;;;;;2.07;1.37;;;;;;;8.82;90.89;98364.06;6171936;23;20200;-62
2022/11/08 08:28:23;;;;;;;4.00;1.73;;;;;;;8.84;89.32;98363.91;6175216;23;20250;-61
2022/11/08 08:31:05;;;;;;;3.47;1.97;;;;;;;8.85;88.59;98375.94;6174918;23;20213;-62
2022/11/08 08:33:32;;;;;;;4.50;2.10;;;;;;;8.84;87.22;98382.13;6171306;23;20267;-62
2022/11/08 08:36:03;;;;;;;3.43;2.00;;;;;;;8.80;89.12;98378.16;6171826;23;20231;-62
2022/11/08 08:38:34;;;;;;;3.03;1.70;;;;;;;8.75;90.45;98396.00;6174860;23;20201;-62
2022/11/08 08:41:01;;;;;;;4.57;1.83;;;;;;;8.74;90.50;98396.97;6171672;23;20216;-61
2022/11/08 08:44:07;;;;;;;4.97;1.80;;;;;;;8.74;92.07;98400.41;6174831;23;20264;-62
2022/11/08 08:46:34;;;;;;;5.47;2.90;;;;;;;8.70;92.03;98401.66;6172120;23;20204;-61
2022/11/08 08:49:01;;;;;;;2.67;1.50;;;;;;;8.69;93.67;98402.63;6171432;23;20867;-62
2022/11/08 08:51:28;;;;;;;3.90;1.40;;;;;;;8.74;96.22;98395.19;6175599;23;20216;-62
2022/11/08 08:53:55;;;;;;;4.07;1.60;;;;;;;8.80;94.08;98405.03;6173406;23;20216;-62
2022/11/08 08:56:21;;;;;;;3.83;2.27;;;;;;;8.90;90.48;98417.97;6176983;23;20203;-62
2022/11/08 08:58:49;;;;;;;7.47;4.30;;;;;;;8.91;90.70;98414.41;6176934;23;20535;-62
2022/11/08 09:01:15;;;;;;;6.70;2.67;;;;;;;8.91;90.25;98414.41;6173423;23;20597;-62
2022/11/08 09:03:42;;;;;;;4.67;2.27;;;;;;;9.05;90.65;98392.25;6176200;23;20217;-63
2022/11/08 09:06:09;;;;;;;5.13;1.93;;;;;;;9.10;91.21;98389.22;6172846;23;20201;-63
2022/11/08 09:08:37;;;;;;;5.70;2.70;;;;;;;9.18;91.41;98391.91;6176020;23;20313;-62
2022/11/08 09:11:04;;;;;;;7.33;3.43;;;;;;;9.21;90.64;98409.84;6172841;23;20220;-62
2022/11/08 09:13:31;;;;;;;17.33;10.63;;;;;;;9.19;90.37;98418.78;6176165;23;20248;-63
2022/11/08 09:16:00;;;;;;;4.97;3.37;;;;;;;9.24;90.74;98422.59;6172953;23;20675;-64
2022/11/08 09:18:26;;;;;;;8.67;3.57;;;;;;;9.24;90.74;98414.78;6176477;23;20202;-63
2022/11/08 09:20:56;;;;;;;6.63;3.30;;;;;;;9.24;90.54;98411.34;6176280;23;20267;-63
2022/11/08 09:23:22;;;;;;;7.53;3.47;;;;;;;9.26;90.68;98410.25;6172343;23;20869;-64
2022/11/08 09:26:14;;;;;;;6.50;3.20;;;;;;;9.35;92.09;98405.09;6176332;23;20204;-63
2022/11/08 09:28:47;;;;;;;5.97;1.90;;;;;;;9.94;79.95;98392.41;6173511;23;20315;-63
2022/11/08 09:31:37;;;;;;;1.20;0.90;;;;;;;10.55;70.64;98386.41;6172190;23;23455;-64
2022/11/08 09:34:26;;;;;;;4.20;1.90;;;;;;;11.15;70.00;98388.03;6172358;23;20211;-65
2022/11/08 09:37:40;;;;;;;1.80;1.03;;;;;;;11.92;63.40;98391.34;6172517;23;20204;-64
2022/11/08 09:40:14;;;;;;;1.70;1.13;;;;;;;12.77;54.22;98373.47;6172209;23;20678;-63
2022/11/08 09:42:53;;;;;;;2.50;0.90;;;;;;;13.21;55.34;98385.16;6175646;23;20308;-64
2022/11/08 09:46:01;;;;;;;1.90;0.70;;;;;;;13.51;52.35;98393.19;6172379;23;20730;-63
2022/11/08 09:48:34;;;;;;;3.33;0.97;;;;;;;13.87;48.36;98389.94;6171667;23;20202;-63
2022/11/08 09:51:06;;;;;;;0.90;0.60;;;;;;;14.16;47.07;98391.81;6172502;23;20209;-63
2022/11/08 09:53:41;;;;;;;1.53;0.80;;;;;;;14.47;46.17;98393.41;6148702;23;20645;-63
2022/11/08 09:56:15;;;;;;;1.33;0.60;;;;;;;14.66;48.53;98398.31;6173031;23;20206;-63
2022/11/08 09:58:53;;;;;;;1.17;0.80;;;;;;;14.78;44.32;98396.88;6176248;23;20207;-63
2022/11/08 10:01:21;;;;;;;1.20;0.63;;;;;;;14.90;43.88;98411.16;6172678;23;20290;-63
2022/11/08 10:03:49;;;;;;;3.40;0.83;;;;;;;14.97;43.59;98406.00;6175638;23;20227;-63
2022/11/08 10:06:27;;;;;;;3.43;0.73;;;;;;;15.03;46.53;98400.00;6171903;23;20210;-63
2022/11/08 10:09:04;;;;;;;1.50;0.60;;;;;;;15.31;42.55;98415.06;6176508;23;20201;-63
2022/11/08 10:11:44;;;;;;;1.50;0.70;;;;;;;15.43;42.06;98396.13;6174311;23;20211;-63
2022/11/08 10:14:30;;;;;;;2.20;0.80;;;;;;;15.46;43.76;98393.97;6172439;23;20203;-63
2022/11/08 10:17:12;;;;;;;1.00;0.80;;;;;;;15.49;44.20;98398.00;6173187;23;20254;-63
2022/11/08 10:19:50;;;;;;;1.40;0.77;;;;;;;15.55;42.03;98401.72;6176113;23;20208;-63
2022/11/08 10:22:24;;;;;;;1.50;0.70;;;;;;;15.64;42.19;98400.59;6172168;23;20207;-63
2022/11/08 10:24:57;;;;;;;1.27;0.70;;;;;;;15.68;42.72;98393.13;6176068;23;20676;-63
2022/11/08 10:27:32;;;;;;;1.77;0.70;;;;;;;15.73;43.38;98396.81;6172789;23;20528;-63
2022/11/08 10:30:04;;;;;;;1.20;0.90;;;;;;;15.72;42.47;98397.81;6171929;23;20256;-63
2022/11/08 10:32:33;;;;;;;1.70;0.70;;;;;;;15.77;44.61;98394.63;6175649;23;20237;-61
2022/11/08 10:35:08;;;;;;;0.80;0.70;;;;;;;15.59;43.47;98398.50;6172523;23;20196;-63
2022/11/08 10:37:35;;;;;;;1.37;0.70;;;;;;;15.84;42.35;98398.13;6176107;23;20223;-63
2022/11/08 10:40:05;;;;;;;3.13;0.60;;;;;;;15.93;42.50;98402.28;6172235;23;20221;-61
2022/11/08 10:42:39;;;;;;;1.80;0.70;;;;;;;16.03;42.56;98378.22;6174141;23;20208;-64
2022/11/08 10:45:09;;;;;;;1.87;0.90;;;;;;;16.09;40.59;98374.03;6145856;23;20208;-63
2022/11/08 10:47:38;;;;;;;4.40;0.87;;;;;;;16.12;41.11;98376.28;6175480;23;20207;-61
2022/11/08 10:50:14;;;;;;;1.90;0.77;;;;;;;16.12;41.48;98381.53;6172121;23;20203;-62
2022/11/08 10:52:44;;;;;;;1.97;0.67;;;;;;;16.24;41.77;98387.06;6175383;23;20209;-62
2022/11/08 10:55:24;;;;;;;0.77;0.60;;;;;;;16.36;41.29;98371.56;6171689;23;20203;-62
2022/11/08 10:57:50;;;;;;;0.90;0.50;;;;;;;16.42;40.20;98378.69;6148775;23;20210;-62
2022/11/08 11:00:27;;;;;;;2.90;0.80;;;;;;;16.47;41.06;98373.63;6171819;23;20213;-62
2022/11/08 11:02:57;;;;;;;0.70;0.50;;;;;;;16.48;40.36;98366.53;6134552;23;20209;-62
2022/11/08 11:05:28;;;;;;;2.33;0.70;;;;;;;16.49;41.75;98365.53;6173286;23;20209;-62
2022/11/08 11:08:01;;;;;;;1.77;0.60;;;;;;;16.52;42.57;98362.50;6171982;23;20206;-62
2022/11/08 11:10:30;;;;;;;1.70;0.70;;;;;;;16.59;41.00;98367.78;6175366;23;20200;-62
2022/11/08 11:13:02;;;;;;;1.30;0.60;;;;;;;16.61;42.83;98356.06;6171383;23;20639;-62
2022/11/08 11:15:36;;;;;;;0.80;0.50;;;;;;;16.58;43.60;98363.53;6173948;23;20211;-62
2022/11/08 11:18:03;;;;;;;1.20;0.60;;;;;;;16.65;42.20;98359.94;6172270;23;20246;-62
2022/11/08 11:20:30;;;;;;;0.70;0.50;;;;;;;16.67;42.77;98367.63;6175631;23;20264;-62
2022/11/08 11:22:59;;;;;;;1.00;0.63;;;;;;;16.70;40.20;98356.69;6171528;23;20513;-62
2022/11/08 11:25:26;;;;;;;1.33;0.80;;;;;;;16.80;42.04;98364.25;6175442;23;20200;-62
2022/11/08 11:27:55;;;;;;;0.93;0.60;;;;;;;16.87;41.83;98357.16;6175326;23;20635;-62
2022/11/08 11:30:28;;;;;;;6.20;1.00;;;;;;;16.98;43.65;98366.34;6172086;23;20259;-62
2022/11/08 11:33:01;;;;;;;2.60;0.80;;;;;;;17.02;40.37;98357.03;6171319;23;20213;-62
2022/11/08 11:35:35;;;;;;;1.93;0.70;;;;;;;17.23;39.72;98345.50;6175201;23;20209;-62
2022/11/08 11:38:06;;;;;;;2.40;0.90;;;;;;;17.15;41.25;98356.22;6171530;23;20217;-62
2022/11/08 11:40:39;;;;;;;2.77;1.00;;;;;;;17.31;40.54;98348.94;6175580;23;20521;-62
2022/11/08 11:43:12;;;;;;;4.87;0.70;;;;;;;17.58;40.84;98346.34;6171731;23;20659;-62
2022/11/08 11:45:45;;;;;;;3.20;0.80;;;;;;;17.72;41.61;98347.97;6175463;23;20221;-62
2022/11/08 11:48:16;;;;;;;4.10;0.70;;;;;;;17.86;41.08;98343.47;6171540;23;20302;-62
2022/11/08 11:50:46;;;;;;;2.60;0.70;;;;;;;18.12;39.50;98339.19;6173493;23;20441;-62
2022/11/08 11:53:18;;;;;;;2.80;0.70;;;;;;;17.83;40.33;98346.53;6171627;23;20204;-62
2022/11/08 11:55:54;;;;;;;3.37;1.00;;;;;;;17.87;39.62;98344.28;6173321;23;20207;-62
2022/11/08 11:58:36;;;;;;;0.73;0.50;;;;;;;17.56;38.82;98344.72;6172110;23;20214;-62
2022/11/08 12:01:15;;;;;;;1.00;0.60;;;;;;;17.57;41.91;98348.16;6171747;23;20215;-62
2022/11/08 12:04:10;;;;;;;2.67;0.70;;;;;;;17.45;41.25;98332.13;6174903;23;20470;-62
2022/11/08 12:06:48;;;;;;;1.03;0.80;;;;;;;17.24;40.35;98339.22;6145682;23;20210;-62
2022/11/08 12:09:29;;;;;;;2.93;0.77;;;;;;;17.50;40.31;98342.06;6170283;23;20213;-62
2022/11/08 12:12:12;;;;;;;1.80;0.73;;;;;;;17.61;40.97;98332.72;6171936;23;20572;-62
2022/11/08 12:14:51;;;;;;;1.63;0.80;;;;;;;17.83;41.98;98333.31;6175287;23;20210;-62
2022/11/08 12:17:41;;;;;;;4.23;2.23;;;;;;;17.81;40.49;98333.53;6171742;23;20209;-62